Pilot No. 4 — WDA5463 — position and weather

sailwx.info

Track history (hours):
 
Tides and Currents Weather Stations Pressure Air Temp Water Temp Dewpoint Dewpoint Depression Visibility Wind Speed Wind Dir Waves Ship Positions

Pilot No. 4

Owner: P E P Inc, FORT LAUDERDALE, FL. More information available from US FCC via Universal Licensing System and Coast Guard Vessel Documentation Center.

Last reported at 2015-Mar-26 10:33 UTC. Time now 2015-Mar-29 16:05 UTC.
Position N 26°05' W 080°07'.

MMSI: 495270931.

Date/timePositionNaut miles runAvg speedWind from/ knotsBaromVisibWave heightAir tempDewpointWater temp
2015-Mar-26 10:33N 26°05' W 080°07'3 3.3
2015-Mar-26 09:33N 26°06' W 080°03'3 3.3
2015-Mar-26 08:33N 26°05' W 080°07'1 1.5
2015-Mar-26 07:33N 26°06' W 080°05'1 1.5
2015-Mar-26 06:34N 26°06' W 080°07'1 0.0
2015-Mar-24 06:15N 26°06' W 080°07'2 2.7
2015-Mar-24 05:33N 26°06' W 080°05'2 0.6
2015-Mar-24 02:16N 26°06' W 080°07'2 2.8
2015-Mar-24 01:33N 26°06' W 080°05'2 1.5
2015-Mar-24 00:10N 26°06' W 080°07'2 2.9
2015-Mar-23 23:33N 26°06' W 080°05'2 0.8
2015-Mar-23 21:21N 26°06' W 080°07'1 1.0
2015-Mar-23 20:33N 26°05' W 080°07'0 0.2
2015-Mar-23 19:33N 26°05' W 080°07'1 0.1
2015-Mar-23 11:12N 26°06' W 080°07'1 2.3
2015-Mar-23 10:33N 26°06' W 080°06'1 1.5
2015-Mar-23 09:33N 26°06' W 080°07'0 0.0
2015-Mar-23 08:33N 26°06' W 080°07'1 1.0
2015-Mar-23 07:33N 26°05' W 080°07'1 1.0
2015-Mar-23 06:33N 26°06' W 080°07'2 2.1
2015-Mar-23 05:33N 26°06' W 080°05'2 0.6
2015-Mar-23 02:33N 26°06' W 080°07'1 0.2
2015-Mar-23 00:10N 26°06' W 080°07'2 3.6
2015-Mar-22 23:33N 26°06' W 080°05'2 1.9
2015-Mar-22 22:33N 26°05' W 080°07'0 0.2
2015-Mar-22 21:33N 26°05' W 080°07'0 0.1
2015-Mar-22 20:33N 26°05' W 080°07'1 0.1
2015-Mar-22 14:15N 26°06' W 080°07'1 1.4
2015-Mar-22 13:33N 26°05' W 080°07'1 0.5
2015-Mar-22 12:33N 26°06' W 080°07'2 1.7
2015-Mar-22 11:33N 26°06' W 080°05'2 2.2
2015-Mar-22 10:33N 26°06' W 080°07'1 1.0
2015-Mar-22 09:33N 26°05' W 080°07'1 0.8
2015-Mar-22 08:33N 26°06' W 080°07'0 0.1
2015-Mar-22 07:33N 26°06' W 080°07'1 0.3
2015-Mar-22 02:33N 26°06' W 080°06'1 1.4
2015-Mar-22 01:33N 26°06' W 080°07'0 0.4
2015-Mar-22 00:32N 26°05' W 080°07'1 0.7
2015-Mar-21 23:31N 26°06' W 080°07'1 0.7
2015-Mar-21 22:33N 26°05' W 080°07'1 1.1
2015-Mar-21 21:33N 26°06' W 080°06'1 0.7
2015-Mar-21 20:33N 26°06' W 080°07'1 0.1
2015-Mar-21 11:14N 26°06' W 080°07'0 0.0
2015-Mar-21 10:33N 26°06' W 080°07'4 3.6
2015-Mar-21 09:33N 26°06' W 080°03'0 0.5
2015-Mar-21 08:33N 26°06' W 080°04'2 0.4
2015-Mar-21 04:33N 26°06' W 080°06'1 1.2
2015-Mar-21 03:33N 26°06' W 080°07'2 2.1
2015-Mar-21 02:33N 26°06' W 080°05'2 1.6
2015-Mar-21 01:06N 26°06' W 080°07'4 7.8
2015-Mar-21 00:33N 26°05' W 080°03'4 4.0
2015-Mar-20 23:33N 26°05' W 080°07'0 0.1
2015-Mar-20 22:33N 26°05' W 080°07'1 0.7
2015-Mar-20 21:33N 26°06' W 080°07'3 2.6
2015-Mar-20 20:33N 26°06' W 080°04'3 0.3
2015-Mar-20 10:10N 26°06' W 080°07'2 3.4
2015-Mar-20 09:33N 26°06' W 080°05'2 1.5
2015-Mar-20 08:08N 26°06' W 080°07'2 2.8
2015-Mar-20 07:33N 26°06' W 080°06'2 1.7
2015-Mar-20 06:33N 26°07' W 080°05'3 1.1
2015-Mar-20 04:12N 26°06' W 080°07'1 1.8
2015-Mar-20 03:33N 26°06' W 080°06'1 1.0
2015-Mar-20 02:33N 26°05' W 080°07'1 0.6
2015-Mar-20 01:33N 26°06' W 080°07'0 0.2
2015-Mar-20 00:33N 26°06' W 080°07'0 0.2
2015-Mar-19 23:34N 26°06' W 080°07'1 0.9
2015-Mar-19 22:33N 26°05' W 080°07'5 4.8
2015-Mar-19 21:33N 26°07' W 080°02'5 4.5
2015-Mar-19 20:33N 26°06' W 080°07'0 0.0
2015-Mar-19 10:33N 26°06' W 080°07'3 2.6
2015-Mar-19 09:33N 26°05' W 080°04'2 2.4
2015-Mar-19 08:33N 26°06' W 080°07'0 0.3
2015-Mar-19 07:33N 26°06' W 080°07'1 1.4
2015-Mar-19 06:33N 26°06' W 080°05'1 0.4
2015-Mar-19 03:33N 26°06' W 080°07'0 0.1
2015-Mar-19 00:33N 26°06' W 080°07'0 0.2
2015-Mar-18 23:33N 26°06' W 080°07'1 0.1
2015-Mar-18 19:33N 26°06' W 080°07'0 0.3
2015-Mar-18 18:33N 26°06' W 080°07'0 0.3
2015-Mar-18 17:33N 26°06' W 080°07'0 0.3
2015-Mar-18 16:33N 26°06' W 080°07'1 1.3
2015-Mar-18 15:33N 26°06' W 080°06'1 0.8
2015-Mar-18 14:33N 26°06' W 080°07'3 3.2
2015-Mar-18 13:33N 26°06' W 080°03'2 0.1
2015-Mar-17 16:33N 26°06' W 080°05'1 0.7
2015-Mar-17 14:33N 26°06' W 080°07'2 2.4
2015-Mar-17 13:33N 26°05' W 080°04'1 1.4
2015-Mar-17 12:33N 26°06' W 080°05'1 1.2
2015-Mar-17 11:34N 26°06' W 080°07'0 0.3
2015-Mar-17 10:33N 26°06' W 080°07'0 0.1
2015-Mar-17 08:33N 26°06' W 080°07'1 0.5
2015-Mar-17 07:33N 26°06' W 080°07'1 0.9
2015-Mar-17 06:33N 26°05' W 080°06'0 0.2
2015-Mar-17 05:33N 26°05' W 080°06'1 0.4
2015-Mar-17 03:33N 26°06' W 080°06'1 0.2
2015-Mar-16 22:07N 26°06' W 080°07'1 1.5
2015-Mar-16 21:33N 26°05' W 080°07'0 0.3
2015-Mar-16 20:33N 26°06' W 080°07'1 0.9
2015-Mar-16 19:33N 26°06' W 080°07'1 0.8
2015-Mar-16 18:33N 26°05' W 080°07'1 1.3
2015-Mar-16 17:33N 26°04' W 080°07'1 1.4
2015-Mar-16 16:33N 26°06' W 080°07'1 0.3
2015-Mar-16 14:05N 26°06' W 080°07'2 3.1
2015-Mar-16 13:33N 26°05' W 080°07'  
Track history (hours):
 
Tides and Currents Weather Stations Pressure Air Temp Water Temp Dewpoint Dewpoint Depression Visibility Wind Speed Wind Dir Waves Ship Positions

Pilot No. 4

Owner: P E P Inc, FORT LAUDERDALE, FL. More information available from US FCC via Universal Licensing System and Coast Guard Vessel Documentation Center.

Last reported at 2015-Mar-26 10:33 UTC. Time now 2015-Mar-29 16:05 UTC.
Position N 26°05' W 080°07'.

MMSI: 495270931.

Date/timePositionNaut miles runAvg speedWind from/ knotsBaromVisibWave heightAir tempDewpointWater temp
2015-Mar-26 10:33N 26°05' W 080°07'3 3.3
2015-Mar-26 09:33N 26°06' W 080°03'3 3.3
2015-Mar-26 08:33N 26°05' W 080°07'1 1.5
2015-Mar-26 07:33N 26°06' W 080°05'1 1.5
2015-Mar-26 06:34N 26°06' W 080°07'1 0.0
2015-Mar-24 06:15N 26°06' W 080°07'2 2.7
2015-Mar-24 05:33N 26°06' W 080°05'2 0.6
2015-Mar-24 02:16N 26°06' W 080°07'2 2.8
2015-Mar-24 01:33N 26°06' W 080°05'2 1.5
2015-Mar-24 00:10N 26°06' W 080°07'2 2.9
2015-Mar-23 23:33N 26°06' W 080°05'2 0.8
2015-Mar-23 21:21N 26°06' W 080°07'1 1.0
2015-Mar-23 20:33N 26°05' W 080°07'0 0.2
2015-Mar-23 19:33N 26°05' W 080°07'1 0.1
2015-Mar-23 11:12N 26°06' W 080°07'1 2.3
2015-Mar-23 10:33N 26°06' W 080°06'1 1.5
2015-Mar-23 09:33N 26°06' W 080°07'0 0.0
2015-Mar-23 08:33N 26°06' W 080°07'1 1.0
2015-Mar-23 07:33N 26°05' W 080°07'1 1.0
2015-Mar-23 06:33N 26°06' W 080°07'2 2.1
2015-Mar-23 05:33N 26°06' W 080°05'2 0.6
2015-Mar-23 02:33N 26°06' W 080°07'1 0.2
2015-Mar-23 00:10N 26°06' W 080°07'2 3.6
2015-Mar-22 23:33N 26°06' W 080°05'2 1.9
2015-Mar-22 22:33N 26°05' W 080°07'0 0.2
2015-Mar-22 21:33N 26°05' W 080°07'0 0.1
2015-Mar-22 20:33N 26°05' W 080°07'1 0.1
2015-Mar-22 14:15N 26°06' W 080°07'1 1.4
2015-Mar-22 13:33N 26°05' W 080°07'1 0.5
2015-Mar-22 12:33N 26°06' W 080°07'2 1.7
2015-Mar-22 11:33N 26°06' W 080°05'2 2.2
2015-Mar-22 10:33N 26°06' W 080°07'1 1.0
2015-Mar-22 09:33N 26°05' W 080°07'1 0.8
2015-Mar-22 08:33N 26°06' W 080°07'0 0.1
2015-Mar-22 07:33N 26°06' W 080°07'1 0.3
2015-Mar-22 02:33N 26°06' W 080°06'1 1.4
2015-Mar-22 01:33N 26°06' W 080°07'0 0.4
2015-Mar-22 00:32N 26°05' W 080°07'1 0.7
2015-Mar-21 23:31N 26°06' W 080°07'1 0.7
2015-Mar-21 22:33N 26°05' W 080°07'1 1.1
2015-Mar-21 21:33N 26°06' W 080°06'1 0.7
2015-Mar-21 20:33N 26°06' W 080°07'1 0.1
2015-Mar-21 11:14N 26°06' W 080°07'0 0.0
2015-Mar-21 10:33N 26°06' W 080°07'4 3.6
2015-Mar-21 09:33N 26°06' W 080°03'0 0.5
2015-Mar-21 08:33N 26°06' W 080°04'2 0.4
2015-Mar-21 04:33N 26°06' W 080°06'1 1.2
2015-Mar-21 03:33N 26°06' W 080°07'2 2.1
2015-Mar-21 02:33N 26°06' W 080°05'2 1.6
2015-Mar-21 01:06N 26°06' W 080°07'4 7.8
2015-Mar-21 00:33N 26°05' W 080°03'4 4.0
2015-Mar-20 23:33N 26°05' W 080°07'0 0.1
2015-Mar-20 22:33N 26°05' W 080°07'1 0.7
2015-Mar-20 21:33N 26°06' W 080°07'3 2.6
2015-Mar-20 20:33N 26°06' W 080°04'3 0.3
2015-Mar-20 10:10N 26°06' W 080°07'2 3.4
2015-Mar-20 09:33N 26°06' W 080°05'2 1.5
2015-Mar-20 08:08N 26°06' W 080°07'2 2.8
2015-Mar-20 07:33N 26°06' W 080°06'2 1.7
2015-Mar-20 06:33N 26°07' W 080°05'3 1.1
2015-Mar-20 04:12N 26°06' W 080°07'1 1.8
2015-Mar-20 03:33N 26°06' W 080°06'1 1.0
2015-Mar-20 02:33N 26°05' W 080°07'1 0.6
2015-Mar-20 01:33N 26°06' W 080°07'0 0.2
2015-Mar-20 00:33N 26°06' W 080°07'0 0.2
2015-Mar-19 23:34N 26°06' W 080°07'1 0.9
2015-Mar-19 22:33N 26°05' W 080°07'5 4.8
2015-Mar-19 21:33N 26°07' W 080°02'5 4.5
2015-Mar-19 20:33N 26°06' W 080°07'0 0.0
2015-Mar-19 10:33N 26°06' W 080°07'3 2.6
2015-Mar-19 09:33N 26°05' W 080°04'2 2.4
2015-Mar-19 08:33N 26°06' W 080°07'0 0.3
2015-Mar-19 07:33N 26°06' W 080°07'1 1.4
2015-Mar-19 06:33N 26°06' W 080°05'1 0.4
2015-Mar-19 03:33N 26°06' W 080°07'0 0.1
2015-Mar-19 00:33N 26°06' W 080°07'0 0.2
2015-Mar-18 23:33N 26°06' W 080°07'1 0.1
2015-Mar-18 19:33N 26°06' W 080°07'0 0.3
2015-Mar-18 18:33N 26°06' W 080°07'0 0.3
2015-Mar-18 17:33N 26°06' W 080°07'0 0.3
2015-Mar-18 16:33N 26°06' W 080°07'1 1.3
2015-Mar-18 15:33N 26°06' W 080°06'1 0.8
2015-Mar-18 14:33N 26°06' W 080°07'3 3.2
2015-Mar-18 13:33N 26°06' W 080°03'2 0.1
2015-Mar-17 16:33N 26°06' W 080°05'1 0.7
2015-Mar-17 14:33N 26°06' W 080°07'2 2.4
2015-Mar-17 13:33N 26°05' W 080°04'1 1.4
2015-Mar-17 12:33N 26°06' W 080°05'1 1.2
2015-Mar-17 11:34N 26°06' W 080°07'0 0.3
2015-Mar-17 10:33N 26°06' W 080°07'0 0.1
2015-Mar-17 08:33N 26°06' W 080°07'1 0.5
2015-Mar-17 07:33N 26°06' W 080°07'1 0.9
2015-Mar-17 06:33N 26°05' W 080°06'0 0.2
2015-Mar-17 05:33N 26°05' W 080°06'1 0.4
2015-Mar-17 03:33N 26°06' W 080°06'1 0.2
2015-Mar-16 22:07N 26°06' W 080°07'1 1.5
2015-Mar-16 21:33N 26°05' W 080°07'0 0.3
2015-Mar-16 20:33N 26°06' W 080°07'1 0.9
2015-Mar-16 19:33N 26°06' W 080°07'1 0.8
2015-Mar-16 18:33N 26°05' W 080°07'1 1.3
2015-Mar-16 17:33N 26°04' W 080°07'1 1.4
2015-Mar-16 16:33N 26°06' W 080°07'1 0.3
2015-Mar-16 14:05N 26°06' W 080°07'2 3.1
2015-Mar-16 13:33N 26°05' W 080°07'  

Dump ship's entire track history